createdAt,value
2022-08-26T00:01:42.206Z,22.24
2022-08-26T00:07:05.321Z,22.17
2022-08-26T00:09:33.273Z,22.09
2022-08-26T00:12:06.213Z,22.12
2022-08-26T00:14:33.229Z,22.08
2022-08-26T00:16:59.821Z,22.00
2022-08-26T00:19:26.340Z,21.93
2022-08-26T00:21:52.737Z,21.88
2022-08-26T00:24:20.772Z,21.85
2022-08-26T00:26:48.728Z,21.83
2022-08-26T00:29:15.852Z,21.80
2022-08-26T00:31:42.813Z,21.73
2022-08-26T00:34:12.312Z,21.64
2022-08-26T00:36:39.636Z,21.66
2022-08-26T00:39:07.417Z,21.72
2022-08-26T00:41:34.919Z,21.70
2022-08-26T00:44:01.421Z,21.69
2022-08-26T00:46:35.097Z,21.64
2022-08-26T00:49:11.912Z,21.62
2022-08-26T00:51:47.290Z,21.54
2022-08-26T00:54:16.347Z,21.58
2022-08-26T00:56:52.765Z,21.60
2022-08-26T00:59:20.259Z,21.48
2022-08-26T01:01:46.990Z,21.49
2022-08-26T01:04:18.312Z,21.48
2022-08-26T01:06:45.259Z,21.50
2022-08-26T01:09:12.135Z,21.46
2022-08-26T01:11:38.994Z,21.50
2022-08-26T01:14:07.380Z,21.52
2022-08-26T01:16:36.020Z,21.53
2022-08-26T01:19:15.730Z,21.48
2022-08-26T01:21:53.655Z,21.50
2022-08-26T01:24:20.243Z,21.51
2022-08-26T01:26:47.640Z,21.49
2022-08-26T01:29:19.056Z,21.45
2022-08-26T01:31:55.915Z,21.44
2022-08-26T01:34:35.948Z,21.36
2022-08-26T01:37:13.703Z,21.31
2022-08-26T01:39:43.822Z,21.27
2022-08-26T01:42:14.471Z,21.27
2022-08-26T01:45:06.302Z,21.22
2022-08-26T01:47:35.296Z,21.18
2022-08-26T01:50:07.796Z,21.15
2022-08-26T01:52:38.086Z,21.12
2022-08-26T01:55:05.392Z,21.10
2022-08-26T01:57:34.422Z,21.18
2022-08-26T02:00:06.314Z,21.20
2022-08-26T02:02:32.822Z,21.25
2022-08-26T02:05:05.812Z,21.22
2022-08-26T02:07:33.220Z,21.19
2022-08-26T02:09:59.839Z,21.23
2022-08-26T02:12:27.087Z,21.19
2022-08-26T02:14:58.216Z,21.10
2022-08-26T02:17:31.922Z,21.00
2022-08-26T02:19:58.572Z,21.06
2022-08-26T02:22:25.102Z,21.04
2022-08-26T02:25:00.684Z,21.12
2022-08-26T02:27:32.931Z,21.02
2022-08-26T02:30:14.686Z,21.00
2022-08-26T02:32:44.349Z,21.01
2022-08-26T02:35:13.791Z,20.94
2022-08-26T02:37:46.676Z,20.94
2022-08-26T02:40:18.267Z,20.92
2022-08-26T02:42:44.803Z,20.88
2022-08-26T02:45:11.175Z,20.92
2022-08-26T02:47:37.598Z,20.89
2022-08-26T02:50:05.039Z,20.83
2022-08-26T02:52:31.626Z,20.96
2022-08-26T02:54:58.938Z,20.86
2022-08-26T02:57:25.984Z,20.80
2022-08-26T02:59:52.579Z,20.78
2022-08-26T03:02:19.097Z,20.83
2022-08-26T03:04:57.490Z,20.82
2022-08-26T03:07:27.219Z,20.77
2022-08-26T03:09:53.659Z,20.76
2022-08-26T03:12:20.304Z,20.72
2022-08-26T03:14:47.558Z,20.65
2022-08-26T03:17:13.961Z,20.58
2022-08-26T03:19:40.319Z,20.52
2022-08-26T03:22:07.810Z,20.43
2022-08-26T03:24:34.864Z,20.45
2022-08-26T03:27:01.906Z,20.39
2022-08-26T03:29:52.926Z,20.35
2022-08-26T03:32:20.602Z,20.28
2022-08-26T03:34:47.006Z,20.25
2022-08-26T03:37:13.430Z,20.21
2022-08-26T03:39:39.811Z,20.16
2022-08-26T03:42:07.216Z,20.18
2022-08-26T03:44:34.025Z,20.13
2022-08-26T03:47:00.642Z,20.08
2022-08-26T03:49:28.964Z,20.10
2022-08-26T03:51:55.473Z,20.23
2022-08-26T03:54:21.802Z,20.15
2022-08-26T03:56:48.205Z,20.14
2022-08-26T03:59:14.571Z,20.15
2022-08-26T04:01:41.170Z,20.16
2022-08-26T04:04:07.696Z,20.22
2022-08-26T04:06:38.157Z,20.29
2022-08-26T04:09:10.565Z,20.41
2022-08-26T04:11:39.475Z,20.46
2022-08-26T04:14:09.545Z,20.42
2022-08-26T04:16:36.619Z,20.34
2022-08-26T04:19:03.431Z,20.32
2022-08-26T04:21:29.893Z,20.34
2022-08-26T04:23:56.309Z,20.36
2022-08-26T04:26:25.466Z,20.52
2022-08-26T04:28:54.594Z,20.55
2022-08-26T04:31:21.151Z,20.50
2022-08-26T04:33:51.833Z,20.60
2022-08-26T04:36:20.166Z,20.54
2022-08-26T04:38:47.432Z,20.48
2022-08-26T04:41:14.847Z,20.52
2022-08-26T04:43:44.520Z,20.50
2022-08-26T04:46:12.870Z,20.37
2022-08-26T04:48:40.898Z,20.36
2022-08-26T04:51:07.823Z,20.30
2022-08-26T04:53:34.731Z,20.32
2022-08-26T04:56:01.214Z,20.31
2022-08-26T04:58:30.890Z,20.36
2022-08-26T05:00:58.430Z,20.35
2022-08-26T05:03:30.295Z,20.46
2022-08-26T05:05:58.164Z,20.43
2022-08-26T05:08:25.145Z,20.38
2022-08-26T05:10:57.005Z,20.36
2022-08-26T05:13:26.406Z,20.49
2022-08-26T05:15:53.596Z,20.47
2022-08-26T05:18:22.923Z,20.54
2022-08-26T05:20:54.751Z,20.60
2022-08-26T05:23:22.866Z,20.51
2022-08-26T05:25:53.599Z,20.54
2022-08-26T05:28:22.436Z,20.65
2022-08-26T05:30:50.020Z,20.71
2022-08-26T05:33:18.893Z,20.72
2022-08-26T05:35:46.815Z,20.79
2022-08-26T05:38:16.495Z,20.83
2022-08-26T05:40:46.065Z,20.81
2022-08-26T05:43:13.352Z,20.86
2022-08-26T05:45:46.295Z,20.84
2022-08-26T05:48:14.424Z,20.74
2022-08-26T05:50:44.702Z,20.80
2022-08-26T05:53:13.115Z,20.69
2022-08-26T05:55:45.579Z,20.74
2022-08-26T05:58:12.359Z,20.79
2022-08-26T06:00:39.720Z,20.83
2022-08-26T06:03:10.999Z,20.83
2022-08-26T06:05:41.828Z,20.92
2022-08-26T06:08:11.300Z,21.00
2022-08-26T06:10:52.491Z,21.15
2022-08-26T06:13:24.062Z,21.22
2022-08-26T06:15:51.492Z,21.28
2022-08-26T06:18:23.980Z,21.43
2022-08-26T06:20:57.021Z,21.54
2022-08-26T06:23:45.154Z,21.60
2022-08-26T06:26:12.480Z,21.71
2022-08-26T06:28:38.928Z,21.78
2022-08-26T06:31:05.983Z,21.83
2022-08-26T06:33:32.556Z,22.03
2022-08-26T06:36:00.971Z,22.05
2022-08-26T06:38:28.440Z,22.04
2022-08-26T06:40:54.928Z,22.16
2022-08-26T06:43:24.283Z,22.28
2022-08-26T06:45:51.295Z,22.35
2022-08-26T06:48:21.429Z,22.50
2022-08-26T06:50:47.877Z,22.67
2022-08-26T06:53:16.934Z,22.85
2022-08-26T06:55:46.036Z,22.99
2022-08-26T06:58:14.104Z,22.93
2022-08-26T07:00:41.623Z,22.96
2022-08-26T07:03:13.886Z,22.99
2022-08-26T07:05:40.859Z,23.08
2022-08-26T07:08:07.425Z,23.18
2022-08-26T07:10:35.532Z,23.39
2022-08-26T07:13:02.528Z,23.44
2022-08-26T07:15:31.483Z,23.50
2022-08-26T07:17:58.000Z,23.51
2022-08-26T07:20:24.376Z,23.56
2022-08-26T07:22:51.371Z,23.86
2022-08-26T07:25:17.928Z,23.77
2022-08-26T07:27:46.156Z,23.89
2022-08-26T07:30:20.337Z,23.87
2022-08-26T07:32:46.727Z,23.94
2022-08-26T07:35:13.997Z,24.09
2022-08-26T07:37:40.534Z,24.15
2022-08-26T07:40:08.308Z,24.20
2022-08-26T07:42:35.858Z,24.38
2022-08-26T07:45:02.177Z,24.36
2022-08-26T07:47:28.531Z,24.46
2022-08-26T07:49:57.274Z,24.55
2022-08-26T07:52:27.367Z,24.53
2022-08-26T07:54:58.046Z,24.75
2022-08-26T07:57:26.178Z,24.71
2022-08-26T07:59:55.126Z,24.92
2022-08-26T08:02:22.659Z,24.83
2022-08-26T08:04:49.059Z,24.89
2022-08-26T08:07:15.525Z,24.94
2022-08-26T08:09:41.947Z,25.06
2022-08-26T08:12:09.351Z,25.16
2022-08-26T08:14:40.696Z,25.31
2022-08-26T08:17:08.551Z,25.37
2022-08-26T08:19:39.045Z,25.44
2022-08-26T08:22:06.885Z,25.45
2022-08-26T08:24:44.515Z,25.64
2022-08-26T08:27:10.865Z,25.82
2022-08-26T08:29:37.870Z,26.02
2022-08-26T08:32:04.925Z,26.23
2022-08-26T08:34:31.588Z,26.30
2022-08-26T08:36:58.421Z,26.60
2022-08-26T08:39:25.475Z,26.66
2022-08-26T08:42:13.881Z,26.55
2022-08-26T08:44:44.425Z,26.64
2022-08-26T08:47:37.645Z,26.75
2022-08-26T08:50:17.411Z,26.52
2022-08-26T08:52:50.605Z,26.37
2022-08-26T08:55:18.204Z,26.62
2022-08-26T08:58:02.185Z,26.78
2022-08-26T09:00:41.657Z,26.41
2022-08-26T09:03:32.155Z,26.13
2022-08-26T09:06:01.849Z,26.07
2022-08-26T09:08:35.025Z,26.11
2022-08-26T09:11:03.440Z,26.07
2022-08-26T09:13:31.740Z,26.03
2022-08-26T09:16:10.307Z,25.86
2022-08-26T09:19:24.533Z,25.81
2022-08-26T09:22:02.154Z,25.65
2022-08-26T09:24:39.625Z,25.46
2022-08-26T09:27:08.731Z,25.55
2022-08-26T09:29:45.325Z,25.55
2022-08-26T09:32:23.949Z,25.39
2022-08-26T09:35:00.922Z,25.33
2022-08-26T09:37:43.521Z,25.32
2022-08-26T09:40:34.945Z,25.38
2022-08-26T09:43:07.729Z,25.35
2022-08-26T09:45:35.726Z,25.35
2022-08-26T09:48:03.426Z,25.16
2022-08-26T09:50:54.767Z,25.15
2022-08-26T09:53:28.580Z,25.15
2022-08-26T09:56:23.174Z,25.13
2022-08-26T09:58:49.954Z,25.07
2022-08-26T10:01:30.089Z,25.12
2022-08-26T10:04:09.679Z,25.06
2022-08-26T10:06:42.105Z,25.05
2022-08-26T10:09:13.726Z,24.92
2022-08-26T10:11:49.458Z,24.94
2022-08-26T10:14:20.228Z,24.85
2022-08-26T10:17:00.330Z,24.84
2022-08-26T10:19:56.229Z,24.80
2022-08-26T10:22:30.276Z,24.85
2022-08-26T10:25:02.745Z,24.86
2022-08-26T10:27:49.705Z,24.93
2022-08-26T10:30:22.779Z,24.97
2022-08-26T10:32:54.599Z,24.95
2022-08-26T10:35:21.456Z,24.96
2022-08-26T10:37:53.420Z,24.95
2022-08-26T10:40:23.527Z,24.98
2022-08-26T10:42:58.391Z,25.00
2022-08-26T10:45:31.370Z,24.84
2022-08-26T10:48:06.777Z,24.86
2022-08-26T10:50:37.422Z,24.96
2022-08-26T10:53:17.712Z,25.03
2022-08-26T10:55:53.304Z,25.09
2022-08-26T10:59:00.283Z,25.34
2022-08-26T11:01:43.184Z,25.36
2022-08-26T11:04:35.081Z,25.58
2022-08-26T11:07:31.935Z,25.89
2022-08-26T11:10:05.015Z,26.09
2022-08-26T11:12:34.454Z,26.15
2022-08-26T11:15:07.112Z,26.26
2022-08-26T11:17:44.412Z,26.37
2022-08-26T11:20:23.739Z,26.43
2022-08-26T11:22:53.274Z,26.62
2022-08-26T11:25:26.455Z,26.73
2022-08-26T11:27:59.686Z,26.81
2022-08-26T11:30:36.935Z,26.90
2022-08-26T11:33:03.451Z,27.03
2022-08-26T11:35:37.453Z,27.23
2022-08-26T11:38:20.172Z,27.15
2022-08-26T11:40:56.320Z,27.32
2022-08-26T11:43:30.274Z,27.39
2022-08-26T11:46:05.209Z,27.45
2022-08-26T11:48:34.726Z,27.37
2022-08-26T11:51:07.668Z,27.42
2022-08-26T11:53:40.928Z,27.64
2022-08-26T11:56:31.595Z,27.74
2022-08-26T11:59:00.496Z,27.83
2022-08-26T12:01:32.176Z,27.91
2022-08-26T12:04:00.167Z,27.98
2022-08-26T12:06:43.443Z,28.17
2022-08-26T12:09:21.923Z,28.45
2022-08-26T12:11:48.342Z,28.70
2022-08-26T12:14:19.798Z,28.88
2022-08-26T12:16:46.452Z,29.26
2022-08-26T12:19:33.001Z,29.69
2022-08-26T12:22:23.423Z,30.15
2022-08-26T12:25:00.563Z,30.29
2022-08-26T12:27:28.785Z,30.64
2022-08-26T12:30:12.253Z,30.85
2022-08-26T12:32:50.981Z,31.14
2022-08-26T12:35:26.055Z,31.30
2022-08-26T12:37:54.485Z,31.61
2022-08-26T12:40:41.531Z,31.88
2022-08-26T12:43:08.927Z,31.95
2022-08-26T12:45:43.062Z,31.98
2022-08-26T12:48:26.793Z,31.40
2022-08-26T12:50:53.306Z,31.60
2022-08-26T12:53:31.716Z,31.78
2022-08-26T12:56:04.531Z,31.45
2022-08-26T12:58:31.528Z,31.50
2022-08-26T13:01:22.461Z,31.74
2022-08-26T13:03:49.862Z,31.75
2022-08-26T13:06:29.644Z,31.87
2022-08-26T13:09:01.088Z,31.79
2022-08-26T13:11:41.088Z,31.79
2022-08-26T13:14:10.772Z,31.50
2022-08-26T13:16:38.603Z,31.55
2022-08-26T13:19:10.349Z,31.75
2022-08-26T13:21:52.825Z,31.70
2022-08-26T13:24:39.989Z,31.66
2022-08-26T13:27:09.346Z,31.32
2022-08-26T13:29:36.187Z,30.83
2022-08-26T13:32:04.624Z,30.59
2022-08-26T13:34:32.319Z,30.36
2022-08-26T13:36:59.117Z,30.05
2022-08-26T13:39:26.416Z,29.79
2022-08-26T13:41:53.092Z,29.59
2022-08-26T13:44:19.759Z,29.56
2022-08-26T13:46:46.363Z,29.45
2022-08-26T13:49:12.820Z,29.37
2022-08-26T13:51:39.487Z,29.38
2022-08-26T13:54:06.156Z,29.48
2022-08-26T13:56:34.009Z,29.55
2022-08-26T13:59:01.275Z,29.67
2022-08-26T14:01:29.482Z,29.61
2022-08-26T14:03:56.030Z,29.59
2022-08-26T14:06:22.500Z,29.56
2022-08-26T14:08:49.350Z,29.69
2022-08-26T14:11:16.165Z,29.90
2022-08-26T14:13:42.934Z,29.91
2022-08-26T14:16:16.079Z,29.83
2022-08-26T14:18:45.289Z,29.72
2022-08-26T14:21:15.059Z,29.60
2022-08-26T14:23:41.810Z,29.38
2022-08-26T14:26:10.801Z,29.36
2022-08-26T14:28:41.656Z,29.30
2022-08-26T14:31:08.646Z,29.48
2022-08-26T14:33:38.109Z,29.40
2022-08-26T14:36:25.366Z,29.47
2022-08-26T14:38:52.489Z,29.48
2022-08-26T14:41:19.800Z,29.52
2022-08-26T14:43:57.724Z,29.37
2022-08-26T14:46:26.707Z,29.37
2022-08-26T14:48:53.106Z,29.38
2022-08-26T14:51:23.872Z,29.41
2022-08-26T14:54:09.703Z,29.51
2022-08-26T14:56:42.855Z,29.53
2022-08-26T14:59:10.236Z,29.46
2022-08-26T15:01:36.884Z,29.39
2022-08-26T15:04:03.592Z,29.20
2022-08-26T15:06:31.754Z,29.04
2022-08-26T15:08:58.878Z,28.90
2022-08-26T15:11:25.442Z,28.86
2022-08-26T15:13:52.858Z,28.90
2022-08-26T15:16:19.553Z,28.95
2022-08-26T15:18:46.001Z,28.95
2022-08-26T15:21:12.505Z,28.91
2022-08-26T15:23:39.396Z,29.03
2022-08-26T15:26:11.177Z,28.93
2022-08-26T15:28:38.448Z,28.83
2022-08-26T15:31:06.500Z,28.57
2022-08-26T15:33:34.091Z,28.37
2022-08-26T15:36:02.099Z,28.47
2022-08-26T15:38:30.964Z,28.46
2022-08-26T15:41:02.920Z,28.48
2022-08-26T15:43:30.509Z,28.36
2022-08-26T15:45:58.990Z,28.30
2022-08-26T15:48:26.313Z,28.24
2022-08-26T15:50:54.720Z,28.03
2022-08-26T15:53:22.424Z,27.78
2022-08-26T15:55:50.270Z,27.64
2022-08-26T15:58:17.216Z,27.47
2022-08-26T16:00:44.980Z,27.27
2022-08-26T16:03:12.103Z,27.17
2022-08-26T16:05:41.168Z,27.00
2022-08-26T16:08:08.216Z,27.01
2022-08-26T16:10:37.402Z,26.96
2022-08-26T16:13:05.011Z,26.93
2022-08-26T16:15:33.483Z,26.91
2022-08-26T16:18:02.155Z,26.94
2022-08-26T16:20:30.209Z,26.78
2022-08-26T16:22:56.970Z,26.70
2022-08-26T16:25:23.811Z,26.69
2022-08-26T16:27:52.097Z,26.59
2022-08-26T16:30:20.864Z,26.56
2022-08-26T16:32:48.787Z,26.55
2022-08-26T16:35:16.690Z,26.45
2022-08-26T16:37:43.422Z,26.35
2022-08-26T16:40:10.823Z,26.43
2022-08-26T16:42:38.093Z,26.36
2022-08-26T16:45:06.258Z,26.34
2022-08-26T16:47:36.786Z,26.36
2022-08-26T16:50:06.497Z,26.28
2022-08-26T16:52:32.985Z,26.29
2022-08-26T16:54:59.528Z,26.22
2022-08-26T16:57:26.045Z,26.23
2022-08-26T16:59:52.858Z,26.17
2022-08-26T17:02:22.249Z,26.23
2022-08-26T17:04:50.658Z,26.24
2022-08-26T17:07:17.121Z,26.20
2022-08-26T17:09:43.496Z,26.08
2022-08-26T17:12:09.841Z,26.05
2022-08-26T17:14:36.208Z,26.12
2022-08-26T17:17:03.135Z,25.99
2022-08-26T17:19:29.552Z,25.99
2022-08-26T17:22:02.791Z,25.97
2022-08-26T17:24:33.639Z,25.98
2022-08-26T17:27:00.696Z,25.93
2022-08-26T17:29:27.388Z,25.78
2022-08-26T17:31:53.813Z,25.74
2022-08-26T17:34:21.324Z,25.75
2022-08-26T17:36:47.746Z,25.67
2022-08-26T17:39:14.187Z,25.60
2022-08-26T17:41:40.991Z,25.44
2022-08-26T17:44:07.634Z,25.40
2022-08-26T17:46:38.127Z,25.40
2022-08-26T17:49:05.515Z,25.23
2022-08-26T17:51:31.947Z,25.28
2022-08-26T17:53:58.296Z,25.25
2022-08-26T17:56:27.184Z,25.14
2022-08-26T17:58:55.541Z,25.11
2022-08-26T18:01:26.196Z,25.14
2022-08-26T18:03:57.852Z,25.05
2022-08-26T18:06:26.146Z,24.94
2022-08-26T18:08:52.622Z,24.87
2022-08-26T18:11:22.879Z,24.91
2022-08-26T18:13:49.262Z,24.90
2022-08-26T18:16:17.699Z,24.88
2022-08-26T18:18:44.797Z,24.77
2022-08-26T18:21:16.882Z,24.85
2022-08-26T18:23:44.653Z,24.83
2022-08-26T18:26:17.348Z,24.64
2022-08-26T18:28:43.779Z,24.63
2022-08-26T18:31:11.557Z,24.57
2022-08-26T18:33:38.799Z,24.51
2022-08-26T18:36:05.270Z,24.50
2022-08-26T18:38:31.711Z,24.42
2022-08-26T18:40:59.247Z,24.38
2022-08-26T18:43:25.619Z,24.29
2022-08-26T18:46:02.116Z,24.27
2022-08-26T18:48:28.498Z,24.20
2022-08-26T18:50:55.354Z,24.16
2022-08-26T18:53:21.813Z,24.15
2022-08-26T18:55:48.187Z,24.14
2022-08-26T18:58:16.275Z,24.11
2022-08-26T19:00:42.692Z,24.01
2022-08-26T19:03:18.472Z,24.06
2022-08-26T19:05:45.755Z,24.12
2022-08-26T19:08:12.295Z,24.01
2022-08-26T19:10:39.769Z,24.13
2022-08-26T19:13:09.192Z,23.95
2022-08-26T19:15:41.285Z,24.01
2022-08-26T19:18:09.066Z,23.91
2022-08-26T19:20:46.524Z,23.98
2022-08-26T19:23:30.987Z,23.94
2022-08-26T19:25:58.506Z,23.82
2022-08-26T19:28:24.839Z,23.86
2022-08-26T19:30:53.181Z,23.80
2022-08-26T19:33:19.956Z,23.69
2022-08-26T19:35:46.427Z,23.78
2022-08-26T19:38:13.471Z,23.77
2022-08-26T19:40:40.419Z,23.80
2022-08-26T19:43:07.280Z,23.64
2022-08-26T19:45:34.303Z,23.67
2022-08-26T19:48:00.982Z,23.63
2022-08-26T19:50:29.071Z,23.71
2022-08-26T19:52:55.503Z,23.64
2022-08-26T19:55:22.936Z,23.62
2022-08-26T19:57:52.187Z,23.63
2022-08-26T20:00:21.791Z,23.59
2022-08-26T20:02:48.611Z,23.68
2022-08-26T20:05:16.945Z,23.62
2022-08-26T20:07:43.720Z,23.62
2022-08-26T20:10:13.443Z,23.58
2022-08-26T20:12:41.629Z,23.51
2022-08-26T20:15:12.649Z,23.55
2022-08-26T20:17:40.306Z,23.58
2022-08-26T20:20:33.421Z,23.60
2022-08-26T20:23:02.328Z,23.60
2022-08-26T20:25:28.882Z,23.43
2022-08-26T20:27:55.251Z,23.53
2022-08-26T20:30:21.781Z,23.43
2022-08-26T20:32:48.359Z,23.40
2022-08-26T20:35:15.303Z,23.31
2022-08-26T20:37:41.681Z,23.22
2022-08-26T20:40:10.270Z,23.16
2022-08-26T20:42:37.543Z,23.22
2022-08-26T20:45:06.957Z,23.26
2022-08-26T20:47:33.906Z,23.18
2022-08-26T20:50:00.281Z,23.16
2022-08-26T20:52:26.681Z,23.23
2022-08-26T20:54:53.099Z,23.09
2022-08-26T20:57:19.488Z,23.11
2022-08-26T20:59:45.866Z,23.14
2022-08-26T21:02:12.335Z,23.16
2022-08-26T21:04:38.786Z,23.21
2022-08-26T21:07:05.157Z,23.07
2022-08-26T21:09:32.481Z,22.99
2022-08-26T21:11:59.084Z,23.08
2022-08-26T21:14:26.129Z,22.95
2022-08-26T21:16:53.119Z,22.93
2022-08-26T21:19:19.585Z,23.05
2022-08-26T21:21:48.107Z,23.03
2022-08-26T21:24:14.899Z,23.00
2022-08-26T21:26:41.680Z,22.71
2022-08-26T21:29:09.601Z,22.76
2022-08-26T21:31:40.018Z,22.86
2022-08-26T21:34:08.855Z,22.75
2022-08-26T21:36:35.232Z,22.86
2022-08-26T21:39:01.680Z,22.78
2022-08-26T21:41:28.610Z,22.70
2022-08-26T21:43:58.983Z,22.71
2022-08-26T21:46:28.288Z,22.64
2022-08-26T21:49:02.308Z,22.55
2022-08-26T21:51:34.134Z,22.61
2022-08-26T21:54:01.941Z,22.68
2022-08-26T21:56:31.446Z,22.63
2022-08-26T21:58:59.596Z,22.65
2022-08-26T22:01:29.362Z,22.70
2022-08-26T22:03:56.100Z,22.74
2022-08-26T22:06:24.135Z,22.78
2022-08-26T22:08:51.491Z,22.65
2022-08-26T22:11:18.956Z,22.55
2022-08-26T22:13:46.249Z,22.50
2022-08-26T22:16:13.777Z,22.42
2022-08-26T22:18:43.691Z,22.60
2022-08-26T22:21:13.459Z,22.42
2022-08-26T22:23:40.075Z,22.39
2022-08-26T22:26:08.579Z,22.56
2022-08-26T22:28:35.940Z,22.45
2022-08-26T22:31:02.393Z,22.48
2022-08-26T22:33:28.943Z,22.53
2022-08-26T22:35:55.614Z,22.57
2022-08-26T22:38:23.850Z,22.60
2022-08-26T22:40:56.412Z,22.55
2022-08-26T22:43:24.847Z,22.53
2022-08-26T22:45:52.786Z,22.42
2022-08-26T22:48:22.423Z,22.42
2022-08-26T22:50:49.677Z,22.43
2022-08-26T22:53:17.568Z,22.50
2022-08-26T22:55:44.620Z,22.45
2022-08-26T22:58:13.227Z,22.40
2022-08-26T23:00:40.820Z,22.35
2022-08-26T23:03:07.768Z,22.29
2022-08-26T23:05:34.584Z,22.34
2022-08-26T23:08:01.781Z,22.32
2022-08-26T23:10:28.228Z,22.30
2022-08-26T23:12:54.635Z,22.35
2022-08-26T23:15:21.230Z,22.32
2022-08-26T23:17:48.394Z,22.24
2022-08-26T23:20:26.211Z,22.40
2022-08-26T23:22:53.366Z,22.40
2022-08-26T23:25:20.304Z,22.38
2022-08-26T23:27:46.984Z,22.36
2022-08-26T23:30:18.033Z,22.46
2022-08-26T23:32:45.001Z,22.41
2022-08-26T23:35:12.756Z,22.40
2022-08-26T23:37:44.032Z,22.41
2022-08-26T23:40:32.479Z,22.43
2022-08-26T23:43:01.221Z,22.39
2022-08-26T23:45:27.828Z,22.32
2022-08-26T23:47:54.959Z,22.34
2022-08-26T23:50:23.719Z,22.29
2022-08-26T23:53:08.697Z,22.22
2022-08-26T23:55:39.012Z,22.20
2022-08-26T23:58:06.367Z,22.20
